Jack C. Davis Observatory, Carson City, Nevada Weather observations

Data are for observation ending at time listed.
 Day   Time    Ave.   Ave.  Ave.  Vector   Max.   Stn.    Total    Solar   Ave.  
  of    of     Air    Rel.  Wind   Wind    Wind   Baro.  Precip.   Rad.    Soil  
Year   Day     Temp.  Hum.  Speed  Dir.    Gust   Pres.                    Temp. 
2014   (PST)    F      %     mph   deg.    mph     mb.     in.     W/m2     F   
------------------------------------------------------------------------------
 294   18:30   52.1    32    7.7   312     10.2   846.5    0.00       0    999.0
 294   18:40   52.2    32    7.5   311     11.5   846.6    0.00       0    999.0
 294   18:50   51.5    33    8.0   310     11.7   846.8    0.00       0    999.0
 294   19:00   51.4    34    6.6   318     11.7   846.9    0.00       0    999.0
 294   19:10   50.3    36    3.0   342      6.2   847.0    0.00       0    999.0
 294   19:20   48.7    39    3.7   325      6.4   847.0    0.00       0    999.0
 294   19:30   47.5    41    2.6   330      5.4   846.8    0.00       0    999.0
 294   19:40   46.8    43    2.0   318      4.1   847.0    0.00       0    999.0
 294   19:50   47.4    42    5.6   296      8.3   847.0    0.00       0    999.0
 294   20:00   47.7    41    5.1   306      6.8   847.2    0.00       0    999.0
 294   20:10   46.8    43    3.2   292      4.7   847.0    0.00       0    999.0
 294   20:20   46.2    44    3.6   288      5.0   847.1    0.00       0    999.0
 294   20:30   45.7    44    2.8   289      4.7   847.4    0.00       0    999.0
 294   20:40   45.3    46    3.5   255      6.5   847.4    0.00       0    999.0
 294   20:50   44.8    47    6.3   265      8.4   847.5    0.00       0    999.0
 294   21:00   44.8    47    4.8   276      7.4   847.5    0.00       0    999.0
 294   21:10   45.0    46    1.9   311      4.4   847.5    0.00       0    999.0
 294   21:20   45.1    46    4.5   311      6.7   847.6    0.00       0    999.0
 294   21:30   44.9    46    3.9   293      5.4   847.7    0.00       0    999.0
 294   21:40   44.7    47    3.9   276      6.0   847.7    0.00       0    999.0
 294   21:50   44.2    48    5.1   283      6.8   847.6    0.00       0    999.0
 294   22:00   44.5    48    4.9   288      7.0   847.8    0.00       0    999.0
 294   22:10   44.7    48    5.5   279      7.9   847.8    0.00       0    999.0
 294   22:20   43.5    50    5.3   281      7.4   847.8    0.00       0    999.0
 294   22:30   44.3    47    4.2   303      5.6   847.8    0.00       0    999.0
 294   22:40   44.5    47    3.3   310      6.3   847.9    0.00       0    999.0
 294   22:50   44.9    46    3.1   313      4.6   848.1    0.00       0    999.0
 294   23:00   44.4    49    3.4   274      5.9   847.9    0.00       0    999.0
 294   23:10   43.6    51    4.8   272      6.7   847.9    0.00       0    999.0
 294   23:20   43.0    52    5.5   275      7.6   848.0    0.00       0    999.0
 294   23:30   43.3    51    3.9   277      6.0   847.8    0.00       0    999.0
 294   23:40   42.0    55    6.1   267      7.7   847.9    0.00       0    999.0
 294   23:50   41.9    55    5.6   268      6.8   847.8    0.00       0    999.0
 295    0:00   41.8    55    4.5   272      6.3   848.0    0.00       0    999.0
 295    0:10   41.1    56    5.5   267      6.5   847.9    0.00       0    999.0
 295    0:20   41.7    54    3.9   276      5.5   847.9    0.00       0    999.0
 295    0:30   41.5    55    4.0   268      5.6   848.1    0.00       0    999.0
 295    0:40   40.9    55    5.1   265      6.7   848.1    0.00       0    999.0
 295    0:50   40.7    56    4.5   276      6.1   848.1    0.00       0    999.0
 295    1:00   40.7    55    3.1   284      4.3   848.0    0.00       0    999.0
 295    1:10   40.9    54    2.8   289      4.2   848.1    0.00       0    999.0
 295    1:20   40.5    56    2.7   279      3.5   848.2    0.00       0    999.0
 295    1:30   39.8    57    2.9   277      4.6   848.1    0.00       0    999.0
 295    1:40   40.6    55    2.0   287      5.0   848.2    0.00       0    999.0
 295    1:50   40.3    55    3.3   281      4.1   848.2    0.00       0    999.0
 295    2:00   39.6    57    3.1   280      5.2   848.1    0.00       0    999.0
 295    2:10   39.6    58    4.1   269      5.2   848.0    0.00       0    999.0
 295    2:20   40.0    56    1.7   265      4.3   848.0    0.00       0    999.0
 295    2:30   39.8    57    3.5   258      4.6   848.0    0.00       0    999.0
 295    2:40   39.6    58    4.5   266      5.2   848.0    0.00       0    999.0
 295    2:50   39.1    58    3.4   284      5.4   848.0    0.00       0    999.0
 295    3:00   40.3    55    1.4   299      3.0   848.0    0.00       0    999.0
 295    3:10   40.0    56    2.1   287      3.6   848.0    0.00       0    999.0
 295    3:20   39.1    58    3.0   311      4.1   848.1    0.00       0    999.0
 295    3:30   39.4    57    3.4   314      4.2   848.1    0.00       0    999.0
 295    3:40   39.4    56    2.5   304      3.5   848.2    0.00       0    999.0
 295    3:50   39.4    56    2.7   304      3.9   848.1    0.00       0    999.0
 295    4:00   39.2    57    2.7   301      3.7   848.2    0.00       0    999.0
 295    4:10   39.4    57    2.6   283      4.9   848.1    0.00       0    999.0
 295    4:20   38.5    60    5.0   270      6.0   848.2    0.00       0    999.0
 295    4:30   38.2    61    3.6   279      4.6   848.3    0.00       0    999.0
 295    4:40   38.9    59    2.9   268      4.3   848.3    0.00       0    999.0
 295    4:50   38.7    59    1.9   273      4.3   848.4    0.00       0    999.0
 295    5:00   38.6    59    1.5   301      2.8   848.4    0.00       0    999.0
 295    5:10   38.9    58    1.2   321      2.5   848.5    0.00       0    999.0
 295    5:20   39.2    57    1.3   282      2.6   848.5    0.00       0    999.0
 295    5:30   38.5    59    3.1   250      3.8   848.4    0.00       0    999.0
 295    5:40   38.1    60    2.2   307      3.0   848.4    0.00       0    999.0
 295    5:50   37.7    61    3.2   278      4.1   848.5    0.00       0    999.0
 295    6:00   37.4    62    3.7   284      4.4   848.5    0.00       0    999.0
 295    6:10   37.8    60    2.6   308      3.8   848.7    0.00       0    999.0
 295    6:20   38.4    59    1.9   298      3.0   848.8    0.00       4    999.0
 295    6:30   38.7    58    1.4   264      2.7   848.8    0.00       8    999.0
 295    6:40   39.4    57    2.1   257      3.8   848.8    0.00      14    999.0
 295    6:50   39.5    57    1.6   278      4.3   848.9    0.00      37    999.0
 295    7:00   40.2    56    0.0    59      0.7   848.9    0.00      75    999.0
 295    7:10   41.7    52    1.0    95      1.8   849.0    0.00     108    999.0
 295    7:20   43.0    50    0.2    91      1.5   849.2    0.00     113    999.0
 295    7:30   42.9    51    1.2    96      2.6   849.2    0.00     113    999.0
 295    7:40   42.8    52    0.5    71      1.9   849.3    0.00     112    999.0
 295    7:50   43.4    50    0.6   209      1.9   849.2    0.00     135    999.0
 295    8:00   42.9    52    2.5    81      3.5   849.3    0.00     115    999.0
 295    8:10   42.8    53    2.9    96      4.2   849.3    0.00     178    999.0
 295    8:20   43.3    51    2.3    84      4.3   849.3    0.00     212    999.0
 295    8:30   44.1    48    1.8    70      2.8   849.3    0.00     253    999.0
 295    8:40   46.1    45    2.1   100      4.0   849.3    0.00     374    999.0
 295    8:50   45.4    47    2.5    87      5.2   849.3    0.00     316    999.0
 295    9:00   46.0    47    2.8    79      5.0   849.3    0.00     348    999.0
 295    9:10   47.6    44    1.9   103      3.8   849.3    0.00     365    999.0
 295    9:20   48.2    43    2.1    92      4.9   849.3    0.00     442    999.0
 295    9:30   50.2    40    1.7   291      4.9   849.2    0.00     507    999.0
 295    9:40   51.8    37    3.4   124      6.5   849.2    0.00     530    999.0
 295    9:50   51.2    38    3.5   111      6.5   849.2    0.00     514    999.0
 295   10:00   53.0    35    3.8   125      7.7   849.1    0.00     551    999.0
 295   10:10   53.5    34    4.7   122      7.7   849.0    0.00     587    999.0
 295   10:20   55.4    32    4.2   148      7.1   849.0    0.00     516    999.0
 295   10:30   56.1    31    3.3   135      7.1   848.9    0.00     425    999.0
 295   10:40   55.5    31    3.5   117      6.7   848.9    0.00     519    999.0
 295   10:50   56.8    30    4.5    98      7.2   848.8    0.00     713    999.0
 295   11:00   56.6    30    4.1    76      7.9   848.8    0.00     747    999.0
 295   11:10   58.4    28    3.9    90      7.9   848.6    0.00     721    999.0
 295   11:20   59.2    27    3.8    81      6.0   848.5    0.00     728    999.0
 295   11:30   60.2    26    3.7    69      7.5   848.4    0.00     668    999.0
 295   11:40   60.9    26    3.8    77      7.3   848.2    0.00     724    999.0
 295   11:50   62.6    25    3.0    68      6.3   848.2    0.00     711    999.0
 295   12:00   62.5    24    3.5    69      7.3   848.1    0.00     578    999.0
 295   12:10   63.7    24    2.9    76      6.7   848.0    0.00     514    999.0
 295   12:20   64.2    23    3.1   117      6.0   847.9    0.00     391    999.0
 295   12:30   63.4    24    3.9   122      7.0   847.8    0.00     342    999.0
 295   12:40   63.0    24    4.1   110      6.3   847.8    0.00     367    999.0
 295   12:50   63.5    24    2.7    77      4.9   847.7    0.00     389    999.0
 295   13:00   63.8    23    2.7    85      5.2   847.5    0.00     401    999.0
 295   13:10   64.5    23    3.4    95      5.6   847.4    0.00     496    999.0
 295   13:20   65.4    22    3.1    95      6.5   847.3    0.00     519    999.0
 295   13:30   65.9    22    3.1   100      6.1   847.2    0.00     519    999.0
 295   13:40   65.8    22    3.9    90      7.2   847.1    0.00     470    999.0
 295   13:50   66.2    21    3.2   101      5.7   847.1    0.00     542    999.0
 295   14:00   67.4    21    2.8    81      6.7   847.0    0.00     468    999.0
 295   14:10   67.4    21    3.1   114      5.4   847.0    0.00     384    999.0
 295   14:20   68.4    20    2.6   119      5.5   847.0    0.00     385    999.0
 295   14:30   68.8    20    3.5   103      5.2   847.0    0.00     514    999.0
 295   14:40   69.1    21    2.2    40      6.1   847.0    0.00     206    999.0
 295   14:50   68.8    22    5.2   288     14.6   847.0    0.00     236    999.0
 295   15:00   68.7    24   10.5   280     16.0   847.0    0.00     403    999.0
 295   15:10   69.2    23    7.8   256     13.3   847.1    0.00     375    999.0
 295   15:20   69.8    23    6.9   246     13.0   847.0    0.00     343    999.0
 295   15:30   69.1    23    8.0   258     14.0   846.9    0.00     293    999.0
 295   15:40   68.8    23    8.7   269     14.7   846.8    0.00     312    999.0
 295   15:50   69.2    23    7.9   276     13.6   846.9    0.00     309    999.0
 295   16:00   68.7    24    8.4   271     11.5   846.9    0.00     242    999.0
 295   16:10   68.4    24    5.1   276      8.5   847.0    0.00     189    999.0
 295   16:20   67.9    24    4.0   258      9.5   846.9    0.00     116    999.0
 295   16:30   65.7    26    5.7   244      9.2   846.9    0.00      54    999.0
 295   16:40   64.8    27    4.5   263     10.1   846.9    0.00      58    999.0
 295   16:50   64.4    28    4.4   268      8.4   847.0    0.00      63    999.0
 295   17:00   63.9    28    4.8   274      7.6   847.0    0.00      45    999.0
 295   17:10   63.3    29    5.3   264      8.1   847.0    0.00      16    999.0
 295   17:20   63.2    28    5.4   245      9.0   846.9    0.00       1    999.0
 295   17:30   62.6    28    4.1   242      7.1   846.9    0.00       0    999.0
 295   17:40   61.5    30    4.5   255      6.8   847.0    0.00       0    999.0
 295   17:50   60.3    32    5.5   269      8.4   847.1    0.00       0    999.0
 295   18:00   60.5    31    6.0   272      8.7   847.2    0.00       0    999.0
 295   18:10   59.4    32    5.6   271      8.2   847.3    0.00       0    999.0
 295   18:20   57.2    36    5.6   270      8.2   847.3    0.00       0    999.0

Return to Yerington, Nevada graphs page.


Western Regional Climate Center,wrcc@dri.edu